createdAt,value
2019-02-05T00:01:28.588Z,15.23
2019-02-05T00:03:58.820Z,15.20
2019-02-05T00:06:28.908Z,16.30
2019-02-05T00:08:58.132Z,16.90
2019-02-05T00:11:27.669Z,15.03
2019-02-05T00:13:57.209Z,15.67
2019-02-05T00:16:26.524Z,16.87
2019-02-05T00:18:57.024Z,16.90
2019-02-05T00:21:26.683Z,17.07
2019-02-05T00:23:56.800Z,17.23
2019-02-05T00:26:27.857Z,17.93
2019-02-05T00:28:57.198Z,18.27
2019-02-05T00:31:26.419Z,18.37
2019-02-05T00:33:55.881Z,16.47
2019-02-05T00:36:25.450Z,19.90
2019-02-05T00:38:56.292Z,17.27
2019-02-05T00:41:25.509Z,17.13
2019-02-05T00:43:56.656Z,18.40
2019-02-05T00:46:26.205Z,18.60
2019-02-05T00:48:55.385Z,20.07
2019-02-05T00:51:24.944Z,16.35
2019-02-05T00:53:54.240Z,18.67
2019-02-05T00:56:23.773Z,18.73
2019-02-05T00:58:53.452Z,18.80
2019-02-05T01:01:22.646Z,18.10
2019-02-05T01:03:52.300Z,19.40
2019-02-05T01:06:21.804Z,20.20
2019-02-05T01:08:51.085Z,19.07
2019-02-05T01:11:20.529Z,19.57
2019-02-05T01:13:49.710Z,19.60
2019-02-05T01:16:19.269Z,18.43
2019-02-05T01:18:50.361Z,20.00
2019-02-05T01:21:19.936Z,22.43
2019-02-05T01:23:49.131Z,21.10
2019-02-05T01:26:28.928Z,20.87
2019-02-05T01:28:50.434Z,22.30
2019-02-05T01:31:19.589Z,21.77
2019-02-05T01:33:48.840Z,20.27
2019-02-05T01:36:19.862Z,20.47
2019-02-05T01:38:49.191Z,20.90
2019-02-05T01:41:18.742Z,24.40
2019-02-05T01:43:48.247Z,20.97
2019-02-05T01:46:17.524Z,24.17
2019-02-05T01:48:47.047Z,20.70
2019-02-05T01:51:16.279Z,24.10
2019-02-05T01:53:45.608Z,23.30
2019-02-05T01:56:14.851Z,23.93
2019-02-05T01:58:44.332Z,25.60
2019-02-05T02:01:13.944Z,23.98
2019-02-05T02:03:43.147Z,22.47
2019-02-05T02:06:12.382Z,22.90
2019-02-05T02:08:41.892Z,27.07
2019-02-05T02:11:11.596Z,25.67
2019-02-05T02:13:41.562Z,26.10
2019-02-05T02:16:11.110Z,26.27
2019-02-05T02:18:40.537Z,27.07
2019-02-05T02:21:09.750Z,26.17
2019-02-05T02:23:39.109Z,28.70
2019-02-05T02:26:08.329Z,27.90
2019-02-05T02:28:37.832Z,29.30
2019-02-05T02:31:07.172Z,27.97
2019-02-05T02:33:36.408Z,26.17
2019-02-05T02:36:07.201Z,28.62
2019-02-05T02:38:36.673Z,28.70
2019-02-05T02:41:06.289Z,25.87
2019-02-05T02:43:35.946Z,29.10
2019-02-05T02:46:05.467Z,26.30
2019-02-05T02:48:35.061Z,30.27
2019-02-05T02:51:06.144Z,28.30
2019-02-05T02:53:35.324Z,29.37
2019-02-05T02:56:04.623Z,30.03
2019-02-05T02:58:34.577Z,28.43
2019-02-05T03:01:03.796Z,28.23
2019-02-05T03:03:32.979Z,28.13
2019-02-05T03:06:02.181Z,30.90
2019-02-05T03:08:31.371Z,27.43
2019-02-05T03:11:02.302Z,31.10
2019-02-05T03:13:31.848Z,30.30
2019-02-05T03:16:02.544Z,32.77
2019-02-05T03:18:32.089Z,33.43
2019-02-05T03:21:01.354Z,31.53
2019-02-05T03:23:30.519Z,28.93
2019-02-05T03:26:00.097Z,32.75
2019-02-05T03:28:29.277Z,30.17
2019-02-05T03:30:58.482Z,35.40
2019-02-05T03:33:28.034Z,30.10
2019-02-05T03:35:57.201Z,34.47
2019-02-05T03:38:26.797Z,35.03
2019-02-05T03:41:03.603Z,32.40
2019-02-05T03:43:34.419Z,35.93
2019-02-05T03:46:15.802Z,32.00
2019-02-05T03:48:47.880Z,31.33
2019-02-05T03:52:01.678Z,33.67
2019-02-05T03:54:51.866Z,33.53
2019-02-05T03:58:03.915Z,33.70
2019-02-05T04:01:29.502Z,34.97
2019-02-05T04:04:38.623Z,37.30
2019-02-05T04:08:00.032Z,35.60
2019-02-05T04:11:34.624Z,35.57
2019-02-05T04:14:38.994Z,32.83
2019-02-05T04:17:46.347Z,37.77
2019-02-05T04:20:51.440Z,38.47
2019-02-05T04:23:58.150Z,36.60
2019-02-05T04:26:49.744Z,38.67
2019-02-05T04:29:54.468Z,35.93
2019-02-05T04:32:58.175Z,34.63
2019-02-05T04:36:11.997Z,38.17
2019-02-05T04:39:09.745Z,35.70
2019-02-05T04:42:16.097Z,38.07
2019-02-05T04:45:36.487Z,36.20
2019-02-05T04:48:45.458Z,35.97
2019-02-05T04:51:58.759Z,36.97
2019-02-05T04:55:18.143Z,37.77
2019-02-05T04:58:09.270Z,38.10
2019-02-05T05:01:00.769Z,35.70
2019-02-05T05:03:44.586Z,37.83
2019-02-05T05:06:36.539Z,44.75
2019-02-05T05:09:40.123Z,36.70
2019-02-05T05:12:11.064Z,40.53
2019-02-05T05:14:40.696Z,39.80
2019-02-05T05:17:10.053Z,37.00
2019-02-05T05:19:39.653Z,37.83
2019-02-05T05:22:08.854Z,38.43
2019-02-05T05:24:39.003Z,39.80
2019-02-05T05:27:08.803Z,37.70
2019-02-05T05:29:37.982Z,42.70
2019-02-05T05:32:07.286Z,41.60
2019-02-05T05:34:36.521Z,36.10
2019-02-05T05:37:04.284Z,36.57
2019-02-05T05:39:33.527Z,38.53
2019-02-05T05:42:02.990Z,39.35
2019-02-05T05:44:32.297Z,33.90
2019-02-05T05:47:02.207Z,38.33
2019-02-05T05:49:31.398Z,36.77
2019-02-05T05:52:00.634Z,35.65
2019-02-05T05:54:29.876Z,37.50
2019-02-05T05:56:59.218Z,34.10
2019-02-05T05:59:28.607Z,36.30
2019-02-05T06:01:57.792Z,41.20
2019-02-05T06:04:27.421Z,37.03
2019-02-05T06:06:56.764Z,41.53
2019-02-05T06:09:25.983Z,37.20
2019-02-05T06:11:55.554Z,35.53
2019-02-05T06:14:26.158Z,38.40
2019-02-05T06:16:55.678Z,35.00
2019-02-05T06:19:25.244Z,38.30
2019-02-05T06:21:54.496Z,38.70
2019-02-05T06:24:23.700Z,38.20
2019-02-05T06:26:55.100Z,42.20
2019-02-05T06:29:24.757Z,34.80
2019-02-05T06:31:54.215Z,38.80
2019-02-05T06:34:23.716Z,40.33
2019-02-05T06:36:52.956Z,40.37
2019-02-05T06:39:23.675Z,30.37
2019-02-05T06:41:53.431Z,40.17
2019-02-05T06:44:22.637Z,36.43
2019-02-05T06:46:52.113Z,38.13
2019-02-05T06:49:21.433Z,35.60
2019-02-05T06:51:50.656Z,40.25
2019-02-05T06:54:21.741Z,38.20
2019-02-05T06:56:50.903Z,36.37
2019-02-05T06:59:21.239Z,41.60
2019-02-05T07:01:50.410Z,40.17
2019-02-05T07:04:19.769Z,41.93
2019-02-05T07:06:50.344Z,34.85
2019-02-05T07:09:20.860Z,44.90
2019-02-05T07:11:50.157Z,40.00
2019-02-05T07:14:19.847Z,41.70
2019-02-05T07:16:49.090Z,41.70
2019-02-05T07:19:18.357Z,47.00
2019-02-05T07:21:48.246Z,42.47
2019-02-05T07:24:17.791Z,40.57
2019-02-05T07:26:47.174Z,44.27
2019-02-05T07:29:16.884Z,38.57
2019-02-05T07:31:48.346Z,43.80
2019-02-05T07:34:21.289Z,40.63
2019-02-05T07:36:50.866Z,39.90
2019-02-05T07:39:20.119Z,35.77
2019-02-05T07:41:49.559Z,43.13
2019-02-05T07:44:19.585Z,40.50
2019-02-05T07:46:48.905Z,39.67
2019-02-05T07:49:19.823Z,42.70
2019-02-05T07:51:49.090Z,45.73
2019-02-05T07:54:19.765Z,43.10
2019-02-05T07:56:49.023Z,44.47
2019-02-05T07:59:18.328Z,39.30
2019-02-05T08:01:48.293Z,42.98
2019-02-05T08:04:17.960Z,38.10
2019-02-05T08:06:47.898Z,39.50
2019-02-05T08:09:17.590Z,37.73
2019-02-05T08:11:48.013Z,43.30
2019-02-05T08:14:17.411Z,41.80
2019-02-05T08:16:49.684Z,40.48
2019-02-05T08:19:19.316Z,39.33
2019-02-05T08:21:48.584Z,37.27
2019-02-05T08:24:18.329Z,42.30
2019-02-05T08:26:48.432Z,41.70
2019-02-05T08:29:21.785Z,41.63
2019-02-05T08:31:48.985Z,37.55
2019-02-05T08:34:18.690Z,37.67
2019-02-05T08:36:47.952Z,38.13
2019-02-05T08:39:17.942Z,40.17
2019-02-05T08:41:47.429Z,38.23
2019-02-05T08:44:17.127Z,43.33
2019-02-05T08:46:46.773Z,40.30
2019-02-05T08:49:16.021Z,43.43
2019-02-05T08:51:45.257Z,44.93
2019-02-05T08:54:14.640Z,44.30
2019-02-05T08:56:44.271Z,39.43
2019-02-05T08:59:14.570Z,43.73
2019-02-05T09:01:45.719Z,40.10
2019-02-05T09:04:15.357Z,38.63
2019-02-05T09:06:45.037Z,38.50
2019-02-05T09:09:14.317Z,40.27
2019-02-05T09:11:43.669Z,40.80
2019-02-05T09:14:13.250Z,40.83
2019-02-05T09:16:43.289Z,39.90
2019-02-05T09:19:14.416Z,41.97
2019-02-05T09:21:44.045Z,42.30
2019-02-05T09:24:13.659Z,41.93
2019-02-05T09:26:44.612Z,44.83
2019-02-05T09:29:14.082Z,46.20
2019-02-05T09:31:45.103Z,44.83
2019-02-05T09:34:14.417Z,43.30
2019-02-05T09:36:43.680Z,42.10
2019-02-05T09:39:13.024Z,38.70
2019-02-05T09:41:42.665Z,43.60
2019-02-05T09:44:11.906Z,41.33
2019-02-05T09:46:41.564Z,42.03
2019-02-05T09:49:11.174Z,42.17
2019-02-05T09:51:40.486Z,41.03
2019-02-05T09:54:12.104Z,47.10
2019-02-05T09:56:41.406Z,42.27
2019-02-05T09:59:12.817Z,38.33
2019-02-05T10:01:42.220Z,43.60
2019-02-05T10:04:11.900Z,38.03
2019-02-05T10:06:41.173Z,44.40
2019-02-05T10:09:10.440Z,38.40
2019-02-05T10:11:39.778Z,38.00
2019-02-05T10:14:09.076Z,37.73
2019-02-05T10:16:39.743Z,32.53
2019-02-05T10:19:10.303Z,33.53
2019-02-05T10:21:39.885Z,32.80
2019-02-05T10:24:09.182Z,34.03
2019-02-05T10:26:38.965Z,37.30
2019-02-05T10:29:08.226Z,33.33
2019-02-05T10:31:37.525Z,34.67
2019-02-05T10:34:06.783Z,33.37
2019-02-05T10:36:36.419Z,31.93
2019-02-05T10:39:08.765Z,35.70
2019-02-05T10:41:38.046Z,33.80
2019-02-05T10:44:07.492Z,34.13
2019-02-05T10:46:36.859Z,36.37
2019-02-05T10:49:06.556Z,34.60
2019-02-05T10:51:37.614Z,33.23
2019-02-05T10:54:07.527Z,30.50
2019-02-05T10:56:37.517Z,32.00
2019-02-05T10:59:06.794Z,31.30
2019-02-05T11:01:37.176Z,29.07
2019-02-05T11:04:06.410Z,27.47
2019-02-05T11:06:36.119Z,29.70
2019-02-05T11:09:09.194Z,29.30
2019-02-05T11:11:38.456Z,30.90
2019-02-05T11:14:09.332Z,28.20
2019-02-05T11:16:38.794Z,28.35
2019-02-05T11:19:07.999Z,29.10
2019-02-05T11:21:37.727Z,29.60
2019-02-05T11:24:07.797Z,32.23
2019-02-05T11:26:37.045Z,28.13
2019-02-05T11:29:06.348Z,30.50
2019-02-05T11:31:38.307Z,28.40
2019-02-05T11:34:07.652Z,28.43
2019-02-05T11:36:36.916Z,28.07
2019-02-05T11:39:13.570Z,29.67
2019-02-05T11:41:42.832Z,26.77
2019-02-05T11:44:12.180Z,28.87
2019-02-05T11:46:41.908Z,30.50
2019-02-05T11:49:12.169Z,25.97
2019-02-05T11:51:42.286Z,29.30
2019-02-05T11:54:12.029Z,27.93
2019-02-05T11:56:41.252Z,30.10
2019-02-05T11:59:10.560Z,23.40
2019-02-05T12:01:41.431Z,27.45
2019-02-05T12:04:10.694Z,25.70
2019-02-05T12:06:39.996Z,25.97
2019-02-05T12:09:19.223Z,23.00
2019-02-05T12:11:48.875Z,24.53
2019-02-05T12:14:18.121Z,23.70
2019-02-05T12:16:47.760Z,25.60
2019-02-05T12:19:17.067Z,25.50
2019-02-05T12:21:46.700Z,25.83
2019-02-05T12:24:16.371Z,23.73
2019-02-05T12:26:46.003Z,24.45
2019-02-05T12:29:15.243Z,22.30
2019-02-05T12:31:44.486Z,22.63
2019-02-05T12:34:13.883Z,22.47
2019-02-05T12:36:43.598Z,21.50
2019-02-05T12:39:18.660Z,23.27
2019-02-05T12:41:47.923Z,23.27
2019-02-05T12:44:17.348Z,21.87
2019-02-05T12:46:47.051Z,25.05
2019-02-05T12:49:16.760Z,24.03
2019-02-05T12:51:46.397Z,26.00
2019-02-05T12:54:16.086Z,24.37
2019-02-05T12:56:45.794Z,24.23
2019-02-05T12:59:15.177Z,24.10
2019-02-05T13:01:44.812Z,24.90
2019-02-05T13:04:14.107Z,24.60
2019-02-05T13:06:43.418Z,24.67
2019-02-05T13:09:13.118Z,23.30
2019-02-05T13:11:42.525Z,23.90
2019-02-05T13:14:11.822Z,25.10
2019-02-05T13:16:42.221Z,24.30
2019-02-05T13:19:11.466Z,24.93
2019-02-05T13:21:40.856Z,22.93
2019-02-05T13:24:10.757Z,22.53
2019-02-05T13:26:40.008Z,21.90
2019-02-05T13:29:09.276Z,23.57
2019-02-05T13:31:38.547Z,21.00
2019-02-05T13:34:08.407Z,23.47
2019-02-05T13:36:39.416Z,24.55
2019-02-05T13:39:12.834Z,22.97
2019-02-05T13:41:42.128Z,23.90
2019-02-05T13:44:13.116Z,23.60
2019-02-05T13:46:42.369Z,25.27
2019-02-05T13:49:11.718Z,24.13
2019-02-05T13:51:41.207Z,23.63
2019-02-05T13:54:10.477Z,22.50
2019-02-05T13:56:39.726Z,22.17
2019-02-05T13:59:09.021Z,24.13
2019-02-05T14:01:38.279Z,23.70
2019-02-05T14:04:08.015Z,22.60
2019-02-05T14:06:37.498Z,23.83
2019-02-05T14:09:12.621Z,24.47
2019-02-05T14:11:43.689Z,23.50
2019-02-05T14:14:12.929Z,23.07
2019-02-05T14:16:42.639Z,22.80
2019-02-05T14:19:12.149Z,23.77
2019-02-05T14:21:42.142Z,22.33
2019-02-05T14:24:11.396Z,22.33
2019-02-05T14:26:41.085Z,24.02
2019-02-05T14:29:10.370Z,22.27
2019-02-05T14:31:39.735Z,23.77
2019-02-05T14:34:10.569Z,22.87
2019-02-05T14:36:39.800Z,23.50
2019-02-05T14:39:11.076Z,21.63
2019-02-05T14:41:44.990Z,22.10
2019-02-05T14:44:14.243Z,21.00
2019-02-05T14:46:43.730Z,22.63
2019-02-05T14:49:13.021Z,22.20
2019-02-05T14:51:42.663Z,21.70
2019-02-05T14:54:11.925Z,23.13
2019-02-05T14:56:41.203Z,24.70
2019-02-05T14:59:12.625Z,22.90
2019-02-05T15:01:43.448Z,23.60
2019-02-05T15:04:13.162Z,22.97
2019-02-05T15:06:42.847Z,23.03
2019-02-05T15:09:12.317Z,24.57
2019-02-05T15:11:41.587Z,22.27
2019-02-05T15:14:10.969Z,23.67
2019-02-05T15:16:44.761Z,25.30
2019-02-05T15:19:13.979Z,23.93
2019-02-05T15:21:43.597Z,25.30
2019-02-05T15:24:12.978Z,23.13
2019-02-05T15:26:44.345Z,24.40
2019-02-05T15:29:14.721Z,22.53
2019-02-05T15:31:54.350Z,24.03
2019-02-05T15:34:22.846Z,27.33
2019-02-05T15:36:53.435Z,25.47
2019-02-05T15:39:22.645Z,24.90
2019-02-05T15:41:52.062Z,26.30
2019-02-05T15:44:21.418Z,22.97
2019-02-05T15:46:50.944Z,23.10
2019-02-05T15:49:20.534Z,23.80
2019-02-05T15:51:49.799Z,23.57
2019-02-05T15:54:19.132Z,22.53
2019-02-05T15:56:48.434Z,22.37
2019-02-05T15:59:17.738Z,24.20
2019-02-05T16:01:47.020Z,24.93
2019-02-05T16:04:17.252Z,24.60
2019-02-05T16:06:46.687Z,23.57
2019-02-05T16:09:15.947Z,24.30
2019-02-05T16:11:45.271Z,22.07
2019-02-05T16:14:14.650Z,24.40
2019-02-05T16:16:44.514Z,23.90
2019-02-05T16:19:14.153Z,23.30
2019-02-05T16:21:43.471Z,22.20
2019-02-05T16:24:14.338Z,24.00
2019-02-05T16:26:44.455Z,27.70
2019-02-05T16:29:15.188Z,28.37
2019-02-05T16:31:44.570Z,27.60
2019-02-05T16:34:14.170Z,30.10
2019-02-05T16:36:43.412Z,27.47
2019-02-05T16:39:13.140Z,25.80
2019-02-05T16:41:43.677Z,28.03
2019-02-05T16:44:13.363Z,24.73
2019-02-05T16:46:44.497Z,32.38
2019-02-05T16:49:14.963Z,35.17
2019-02-05T16:51:44.557Z,73.60
2019-02-05T16:54:13.858Z,39.83
2019-02-05T16:56:44.886Z,37.60
2019-02-05T16:59:14.119Z,29.80
2019-02-05T17:01:43.899Z,31.20
2019-02-05T17:04:15.034Z,29.40
2019-02-05T17:06:44.677Z,27.57
2019-02-05T17:09:16.837Z,26.80
2019-02-05T17:11:46.459Z,26.13
2019-02-05T17:14:16.161Z,29.37
2019-02-05T17:16:46.488Z,26.33
2019-02-05T17:19:15.777Z,26.13
2019-02-05T17:21:47.931Z,26.40
2019-02-05T17:24:18.183Z,27.87
2019-02-05T17:26:47.967Z,22.83
2019-02-05T17:29:18.744Z,25.30
2019-02-05T17:31:49.842Z,23.50
2019-02-05T17:34:19.260Z,24.80
2019-02-05T17:36:48.960Z,25.93
2019-02-05T17:39:18.255Z,28.97
2019-02-05T17:41:48.221Z,27.93
2019-02-05T17:44:17.812Z,30.80
2019-02-05T17:46:47.602Z,26.60
2019-02-05T17:49:17.000Z,26.50
2019-02-05T17:51:46.815Z,27.70
2019-02-05T17:54:16.436Z,27.30
2019-02-05T17:56:47.093Z,29.70
2019-02-05T17:59:16.802Z,29.03
2019-02-05T18:01:46.176Z,28.13
2019-02-05T18:04:17.111Z,29.57
2019-02-05T18:06:47.131Z,29.07
2019-02-05T18:09:16.730Z,27.83
2019-02-05T18:11:46.147Z,27.03
2019-02-05T18:14:16.631Z,27.87
2019-02-05T18:16:46.273Z,30.07
2019-02-05T18:19:15.922Z,27.90
2019-02-05T18:21:46.474Z,26.67
2019-02-05T18:24:16.428Z,24.40
2019-02-05T18:26:46.038Z,27.47
2019-02-05T18:29:15.754Z,28.80
2019-02-05T18:31:45.021Z,26.73
2019-02-05T18:34:15.109Z,28.50
2019-02-05T18:36:44.560Z,24.07
2019-02-05T18:39:13.790Z,26.20
2019-02-05T18:41:43.054Z,23.43
2019-02-05T18:44:12.729Z,26.83
2019-02-05T18:46:42.433Z,22.80
2019-02-05T18:49:11.734Z,24.20
2019-02-05T18:51:41.620Z,24.73
2019-02-05T18:54:10.960Z,24.53
2019-02-05T18:56:40.810Z,26.63
2019-02-05T18:59:10.422Z,24.40
2019-02-05T19:01:39.632Z,24.98
2019-02-05T19:04:09.204Z,25.07
2019-02-05T19:06:38.505Z,27.33
2019-02-05T19:09:13.840Z,25.40
2019-02-05T19:11:43.784Z,27.90
2019-02-05T19:14:14.091Z,26.13
2019-02-05T19:16:43.699Z,37.33
2019-02-05T19:19:15.311Z,29.57
2019-02-05T19:21:45.254Z,32.50
2019-02-05T19:24:49.236Z,29.57
2019-02-05T19:27:19.148Z,28.17
2019-02-05T19:29:48.754Z,26.80
2019-02-05T19:32:21.617Z,27.00
2019-02-05T19:34:50.855Z,29.77
2019-02-05T19:37:20.588Z,24.00
2019-02-05T19:39:50.493Z,26.20
2019-02-05T19:42:19.772Z,27.87
2019-02-05T19:44:58.906Z,27.83
2019-02-05T19:47:32.209Z,31.40
2019-02-05T19:50:02.874Z,28.27
2019-02-05T19:52:33.386Z,25.70
2019-02-05T19:55:02.625Z,26.60
2019-02-05T19:57:32.167Z,27.40
2019-02-05T20:00:02.077Z,23.57
2019-02-05T20:02:31.698Z,25.83
2019-02-05T20:05:01.767Z,25.20
2019-02-05T20:07:31.420Z,31.70
2019-02-05T20:10:00.946Z,27.13
2019-02-05T20:12:30.408Z,26.67
2019-02-05T20:15:02.801Z,25.50
2019-02-05T20:17:32.112Z,27.50
2019-02-05T20:20:01.412Z,30.60
2019-02-05T20:22:31.229Z,30.70
2019-02-05T20:25:02.145Z,25.50
2019-02-05T20:27:32.210Z,26.37
2019-02-05T20:30:02.839Z,25.70
2019-02-05T20:32:32.678Z,26.60
2019-02-05T20:35:02.745Z,26.67
2019-02-05T20:37:32.868Z,26.50
2019-02-05T20:40:02.375Z,26.07
2019-02-05T20:42:32.195Z,25.93
2019-02-05T20:45:01.469Z,23.37
2019-02-05T20:47:31.298Z,30.03
2019-02-05T20:50:01.089Z,31.73
2019-02-05T20:52:30.925Z,30.13
2019-02-05T20:55:00.855Z,28.63
2019-02-05T20:57:30.844Z,29.13
2019-02-05T21:00:00.580Z,29.33
2019-02-05T21:02:32.033Z,28.83
2019-02-05T21:05:01.748Z,29.97
2019-02-05T21:07:30.928Z,29.27
2019-02-05T21:10:01.030Z,29.50
2019-02-05T21:12:30.571Z,32.60
2019-02-05T21:14:59.844Z,29.70
2019-02-05T21:17:29.093Z,31.60
2019-02-05T21:19:59.221Z,28.20
2019-02-05T21:22:28.679Z,30.83
2019-02-05T21:24:58.284Z,28.97
2019-02-05T21:27:28.985Z,28.73
2019-02-05T21:30:00.350Z,28.90
2019-02-05T21:32:30.068Z,29.85
2019-02-05T21:34:59.386Z,31.13
2019-02-05T21:37:28.695Z,27.90
2019-02-05T21:40:02.526Z,28.67
2019-02-05T21:42:29.586Z,28.80
2019-02-05T21:44:58.837Z,28.97
2019-02-05T21:47:28.659Z,32.60
2019-02-05T21:49:58.848Z,32.40
2019-02-05T21:52:28.054Z,27.63
2019-02-05T21:54:57.290Z,31.23
2019-02-05T21:57:26.932Z,29.43
2019-02-05T21:59:57.012Z,30.90
2019-02-05T22:02:26.197Z,30.73
2019-02-05T22:04:55.637Z,30.57
2019-02-05T22:07:24.873Z,31.63
2019-02-05T22:09:54.749Z,32.67
2019-02-05T22:12:23.940Z,31.27
2019-02-05T22:14:53.460Z,30.93
2019-02-05T22:17:23.308Z,35.07
2019-02-05T22:19:52.474Z,29.47
2019-02-05T22:22:22.018Z,30.20
2019-02-05T22:24:51.198Z,29.67
2019-02-05T22:27:22.223Z,33.00
2019-02-05T22:29:51.358Z,31.77
2019-02-05T22:32:20.601Z,30.80
2019-02-05T22:34:50.104Z,29.77
2019-02-05T22:37:19.358Z,30.40
2019-02-05T22:39:48.642Z,30.90
2019-02-05T22:42:18.044Z,34.53
2019-02-05T22:44:47.613Z,33.07
2019-02-05T22:47:16.836Z,31.10
2019-02-05T22:49:46.737Z,32.43
2019-02-05T22:52:16.010Z,31.60
2019-02-05T22:54:45.252Z,34.57
2019-02-05T22:57:14.506Z,30.90
2019-02-05T22:59:44.247Z,34.67
2019-02-05T23:02:13.954Z,32.13
2019-02-05T23:05:10.996Z,35.33
2019-02-05T23:07:40.310Z,33.37
2019-02-05T23:11:03.762Z,32.67
2019-02-05T23:13:28.816Z,33.57
2019-02-05T23:15:58.430Z,34.23
2019-02-05T23:18:27.735Z,35.30
2019-02-05T23:20:56.929Z,30.50
2019-02-05T23:23:26.106Z,35.20
2019-02-05T23:25:55.712Z,34.23
2019-02-05T23:28:25.516Z,34.17
2019-02-05T23:30:55.288Z,31.53
2019-02-05T23:33:24.544Z,34.17
2019-02-05T23:35:53.752Z,34.20
2019-02-05T23:38:29.448Z,33.73
2019-02-05T23:40:54.285Z,35.90
2019-02-05T23:43:24.102Z,34.23
2019-02-05T23:46:01.305Z,30.80
2019-02-05T23:48:24.601Z,33.00
2019-02-05T23:50:53.945Z,31.90
2019-02-05T23:53:23.512Z,32.80
2019-02-05T23:55:52.690Z,32.67
2019-02-05T23:58:22.872Z,30.37
